sensor_id;sensor_type;location;lat;lon;timestamp;P1;durP1;ratioP1;P2;durP2;ratioP2
58260;SDS011;44058;52.898;6.502;2022-08-06T00:02:05;3.33;;;1.20;;
58260;SDS011;44058;52.898;6.502;2022-08-06T00:04:31;3.30;;;1.35;;
58260;SDS011;44058;52.898;6.502;2022-08-06T00:06:56;3.97;;;1.42;;
58260;SDS011;44058;52.898;6.502;2022-08-06T00:09:22;2.65;;;1.20;;
58260;SDS011;44058;52.898;6.502;2022-08-06T00:11:48;3.28;;;1.23;;
58260;SDS011;44058;52.898;6.502;2022-08-06T00:14:13;3.67;;;1.58;;
58260;SDS011;44058;52.898;6.502;2022-08-06T00:16:39;2.45;;;1.30;;
58260;SDS011;44058;52.898;6.502;2022-08-06T00:19:05;3.03;;;1.30;;
58260;SDS011;44058;52.898;6.502;2022-08-06T00:21:32;2.20;;;1.20;;
58260;SDS011;44058;52.898;6.502;2022-08-06T00:23:57;2.92;;;1.10;;
58260;SDS011;44058;52.898;6.502;2022-08-06T00:26:23;2.38;;;1.17;;
58260;SDS011;44058;52.898;6.502;2022-08-06T00:28:49;2.40;;;1.27;;
58260;SDS011;44058;52.898;6.502;2022-08-06T00:31:15;2.40;;;1.33;;
58260;SDS011;44058;52.898;6.502;2022-08-06T00:33:45;4.30;;;1.50;;
58260;SDS011;44058;52.898;6.502;2022-08-06T00:36:11;5.03;;;1.50;;
58260;SDS011;44058;52.898;6.502;2022-08-06T00:38:36;2.80;;;1.20;;
58260;SDS011;44058;52.898;6.502;2022-08-06T00:41:02;3.28;;;1.30;;
58260;SDS011;44058;52.898;6.502;2022-08-06T00:43:29;4.93;;;1.30;;
58260;SDS011;44058;52.898;6.502;2022-08-06T00:45:55;2.75;;;1.40;;
58260;SDS011;44058;52.898;6.502;2022-08-06T00:48:20;3.42;;;1.50;;
58260;SDS011;44058;52.898;6.502;2022-08-06T00:50:46;5.05;;;1.50;;
58260;SDS011;44058;52.898;6.502;2022-08-06T00:53:12;4.38;;;1.60;;
58260;SDS011;44058;52.898;6.502;2022-08-06T00:55:37;3.17;;;1.60;;
58260;SDS011;44058;52.898;6.502;2022-08-06T00:58:03;2.03;;;1.60;;
58260;SDS011;44058;52.898;6.502;2022-08-06T01:00:30;3.35;;;1.70;;
58260;SDS011;44058;52.898;6.502;2022-08-06T01:02:57;3.72;;;2.10;;
58260;SDS011;44058;52.898;6.502;2022-08-06T01:05:22;2.85;;;1.80;;
58260;SDS011;44058;52.898;6.502;2022-08-06T01:07:48;2.97;;;1.70;;
58260;SDS011;44058;52.898;6.502;2022-08-06T01:10:14;4.22;;;1.73;;
58260;SDS011;44058;52.898;6.502;2022-08-06T01:12:39;3.95;;;2.20;;
58260;SDS011;44058;52.898;6.502;2022-08-06T01:15:05;3.88;;;2.50;;
58260;SDS011;44058;52.898;6.502;2022-08-06T01:17:49;3.58;;;2.40;;
58260;SDS011;44058;52.898;6.502;2022-08-06T01:31:06;4.47;;;2.75;;
58260;SDS011;44058;52.898;6.502;2022-08-06T01:33:40;4.25;;;2.70;;
58260;SDS011;44058;52.898;6.502;2022-08-06T01:36:11;3.67;;;2.45;;
58260;SDS011;44058;52.898;6.502;2022-08-06T01:38:43;5.65;;;2.97;;
58260;SDS011;44058;52.898;6.502;2022-08-06T01:41:13;3.30;;;2.60;;
58260;SDS011;44058;52.898;6.502;2022-08-06T01:44:02;5.97;;;3.10;;
58260;SDS011;44058;52.898;6.502;2022-08-06T01:46:39;5.00;;;2.90;;
58260;SDS011;44058;52.898;6.502;2022-08-06T01:49:07;4.90;;;2.78;;
58260;SDS011;44058;52.898;6.502;2022-08-06T01:51:34;4.15;;;2.80;;
58260;SDS011;44058;52.898;6.502;2022-08-06T01:54:03;4.50;;;3.00;;
58260;SDS011;44058;52.898;6.502;2022-08-06T01:56:32;6.35;;;3.33;;
58260;SDS011;44058;52.898;6.502;2022-08-06T01:59:02;4.25;;;2.90;;
58260;SDS011;44058;52.898;6.502;2022-08-06T02:01:30;4.00;;;2.80;;
58260;SDS011;44058;52.898;6.502;2022-08-06T02:03:59;5.95;;;2.95;;
58260;SDS011;44058;52.898;6.502;2022-08-06T02:06:33;3.78;;;2.70;;
58260;SDS011;44058;52.898;6.502;2022-08-06T02:09:09;5.25;;;2.90;;
58260;SDS011;44058;52.898;6.502;2022-08-06T02:11:39;4.47;;;2.83;;
58260;SDS011;44058;52.898;6.502;2022-08-06T02:14:07;4.00;;;2.25;;
58260;SDS011;44058;52.898;6.502;2022-08-06T02:16:36;3.22;;;2.50;;
58260;SDS011;44058;52.898;6.502;2022-08-06T02:19:05;4.68;;;2.50;;
58260;SDS011;44058;52.898;6.502;2022-08-06T02:21:32;3.13;;;2.45;;
58260;SDS011;44058;52.898;6.502;2022-08-06T02:24:00;3.05;;;2.42;;
58260;SDS011;44058;52.898;6.502;2022-08-06T02:26:29;5.53;;;2.70;;
58260;SDS011;44058;52.898;6.502;2022-08-06T02:28:58;3.10;;;2.38;;
58260;SDS011;44058;52.898;6.502;2022-08-06T02:31:27;3.17;;;2.70;;
58260;SDS011;44058;52.898;6.502;2022-08-06T02:33:53;4.63;;;2.80;;
58260;SDS011;44058;52.898;6.502;2022-08-06T02:36:23;4.30;;;2.70;;
58260;SDS011;44058;52.898;6.502;2022-08-06T02:38:58;3.17;;;2.63;;
58260;SDS011;44058;52.898;6.502;2022-08-06T02:41:49;4.65;;;2.92;;
58260;SDS011;44058;52.898;6.502;2022-08-06T02:44:34;4.57;;;2.60;;
58260;SDS011;44058;52.898;6.502;2022-08-06T02:47:09;2.20;;;2.00;;
58260;SDS011;44058;52.898;6.502;2022-08-06T02:49:40;3.85;;;2.60;;
58260;SDS011;44058;52.898;6.502;2022-08-06T02:52:16;3.45;;;2.70;;
58260;SDS011;44058;52.898;6.502;2022-08-06T02:54:48;3.25;;;2.25;;
58260;SDS011;44058;52.898;6.502;2022-08-06T02:57:23;3.75;;;2.58;;
58260;SDS011;44058;52.898;6.502;2022-08-06T02:59:57;2.50;;;2.00;;
58260;SDS011;44058;52.898;6.502;2022-08-06T03:02:26;2.95;;;1.92;;
58260;SDS011;44058;52.898;6.502;2022-08-06T03:04:54;3.90;;;2.00;;
58260;SDS011;44058;52.898;6.502;2022-08-06T03:07:22;2.22;;;1.95;;
58260;SDS011;44058;52.898;6.502;2022-08-06T03:09:52;2.67;;;1.80;;
58260;SDS011;44058;52.898;6.502;2022-08-06T03:12:19;3.08;;;2.10;;
58260;SDS011;44058;52.898;6.502;2022-08-06T03:14:45;2.25;;;2.05;;
58260;SDS011;44058;52.898;6.502;2022-08-06T03:19:40;3.45;;;2.03;;
58260;SDS011;44058;52.898;6.502;2022-08-06T03:22:09;2.88;;;2.20;;
58260;SDS011;44058;52.898;6.502;2022-08-06T03:24:37;2.57;;;2.00;;
58260;SDS011;44058;52.898;6.502;2022-08-06T03:27:04;3.63;;;2.42;;
58260;SDS011;44058;52.898;6.502;2022-08-06T03:29:32;3.15;;;2.22;;
58260;SDS011;44058;52.898;6.502;2022-08-06T03:31:59;2.20;;;2.03;;
58260;SDS011;44058;52.898;6.502;2022-08-06T03:34:29;2.78;;;1.90;;
58260;SDS011;44058;52.898;6.502;2022-08-06T03:36:55;2.38;;;2.00;;
58260;SDS011;44058;52.898;6.502;2022-08-06T03:39:23;2.63;;;2.42;;
58260;SDS011;44058;52.898;6.502;2022-08-06T03:41:50;2.78;;;2.25;;
58260;SDS011;44058;52.898;6.502;2022-08-06T03:44:18;4.38;;;2.45;;
58260;SDS011;44058;52.898;6.502;2022-08-06T03:49:33;2.05;;;1.92;;
58260;SDS011;44058;52.898;6.502;2022-08-06T03:52:07;2.03;;;1.83;;
58260;SDS011;44058;52.898;6.502;2022-08-06T03:54:37;2.38;;;2.17;;
58260;SDS011;44058;52.898;6.502;2022-08-06T03:57:09;2.13;;;1.50;;
58260;SDS011;44058;52.898;6.502;2022-08-06T03:59:38;2.03;;;1.60;;
58260;SDS011;44058;52.898;6.502;2022-08-06T04:02:06;3.08;;;1.70;;
58260;SDS011;44058;52.898;6.502;2022-08-06T04:04:33;3.75;;;2.10;;
58260;SDS011;44058;52.898;6.502;2022-08-06T04:07:00;2.67;;;1.98;;
58260;SDS011;44058;52.898;6.502;2022-08-06T04:09:27;3.22;;;1.63;;
58260;SDS011;44058;52.898;6.502;2022-08-06T04:14:22;1.83;;;1.70;;
58260;SDS011;44058;52.898;6.502;2022-08-06T04:16:48;3.20;;;1.75;;
58260;SDS011;44058;52.898;6.502;2022-08-06T04:19:15;2.20;;;1.88;;
58260;SDS011;44058;52.898;6.502;2022-08-06T04:21:44;2.80;;;2.20;;
58260;SDS011;44058;52.898;6.502;2022-08-06T04:24:13;2.40;;;2.20;;
58260;SDS011;44058;52.898;6.502;2022-08-06T04:26:42;2.30;;;2.03;;
58260;SDS011;44058;52.898;6.502;2022-08-06T04:29:12;2.78;;;2.08;;
58260;SDS011;44058;52.898;6.502;2022-08-06T04:31:42;1.63;;;1.52;;
58260;SDS011;44058;52.898;6.502;2022-08-06T04:34:10;2.15;;;1.95;;
58260;SDS011;44058;52.898;6.502;2022-08-06T04:36:38;1.70;;;1.60;;
58260;SDS011;44058;52.898;6.502;2022-08-06T04:39:05;1.60;;;1.50;;
58260;SDS011;44058;52.898;6.502;2022-08-06T04:41:31;1.55;;;1.45;;
58260;SDS011;44058;52.898;6.502;2022-08-06T04:43:57;2.13;;;1.90;;
58260;SDS011;44058;52.898;6.502;2022-08-06T04:46:24;1.70;;;1.60;;
58260;SDS011;44058;52.898;6.502;2022-08-06T04:48:50;1.73;;;1.63;;
58260;SDS011;44058;52.898;6.502;2022-08-06T04:51:15;2.80;;;1.70;;
58260;SDS011;44058;52.898;6.502;2022-08-06T04:53:41;1.60;;;1.50;;
58260;SDS011;44058;52.898;6.502;2022-08-06T04:56:07;2.20;;;2.00;;
58260;SDS011;44058;52.898;6.502;2022-08-06T04:58:34;3.80;;;2.38;;
58260;SDS011;44058;52.898;6.502;2022-08-06T05:01:00;4.43;;;2.50;;
58260;SDS011;44058;52.898;6.502;2022-08-06T05:03:26;3.00;;;2.47;;
58260;SDS011;44058;52.898;6.502;2022-08-06T05:06:10;2.97;;;2.30;;
58260;SDS011;44058;52.898;6.502;2022-08-06T05:08:43;3.67;;;2.58;;
58260;SDS011;44058;52.898;6.502;2022-08-06T05:11:13;4.07;;;2.45;;
58260;SDS011;44058;52.898;6.502;2022-08-06T05:13:46;4.53;;;2.55;;
58260;SDS011;44058;52.898;6.502;2022-08-06T05:16:16;3.38;;;2.30;;
58260;SDS011;44058;52.898;6.502;2022-08-06T05:18:46;2.28;;;2.08;;
58260;SDS011;44058;52.898;6.502;2022-08-06T05:21:23;2.53;;;2.22;;
58260;SDS011;44058;52.898;6.502;2022-08-06T05:23:53;2.30;;;2.10;;
58260;SDS011;44058;52.898;6.502;2022-08-06T05:26:20;5.10;;;2.30;;
58260;SDS011;44058;52.898;6.502;2022-08-06T05:28:47;3.60;;;2.05;;
58260;SDS011;44058;52.898;6.502;2022-08-06T05:31:13;2.15;;;1.85;;
58260;SDS011;44058;52.898;6.502;2022-08-06T05:33:39;2.53;;;2.10;;
58260;SDS011;44058;52.898;6.502;2022-08-06T05:36:10;2.10;;;1.75;;
58260;SDS011;44058;52.898;6.502;2022-08-06T05:38:38;2.45;;;2.25;;
58260;SDS011;44058;52.898;6.502;2022-08-06T05:41:08;3.00;;;2.35;;
58260;SDS011;44058;52.898;6.502;2022-08-06T05:43:35;2.65;;;2.17;;
58260;SDS011;44058;52.898;6.502;2022-08-06T05:46:04;3.55;;;1.88;;
58260;SDS011;44058;52.898;6.502;2022-08-06T05:48:36;2.75;;;2.08;;
58260;SDS011;44058;52.898;6.502;2022-08-06T05:51:19;3.08;;;2.25;;
58260;SDS011;44058;52.898;6.502;2022-08-06T05:53:59;2.20;;;2.00;;
58260;SDS011;44058;52.898;6.502;2022-08-06T05:56:35;2.85;;;1.77;;
58260;SDS011;44058;52.898;6.502;2022-08-06T05:59:19;2.22;;;1.70;;
58260;SDS011;44058;52.898;6.502;2022-08-06T06:01:49;1.70;;;1.60;;
58260;SDS011;44058;52.898;6.502;2022-08-06T06:04:15;3.33;;;1.40;;
58260;SDS011;44058;52.898;6.502;2022-08-06T06:06:42;4.70;;;1.90;;
58260;SDS011;44058;52.898;6.502;2022-08-06T06:09:09;2.70;;;2.03;;
58260;SDS011;44058;52.898;6.502;2022-08-06T06:11:35;2.95;;;1.77;;
58260;SDS011;44058;52.898;6.502;2022-08-06T06:14:02;2.03;;;1.33;;
58260;SDS011;44058;52.898;6.502;2022-08-06T06:19:42;1.83;;;1.70;;
58260;SDS011;44058;52.898;6.502;2022-08-06T06:22:30;1.60;;;1.50;;
58260;SDS011;44058;52.898;6.502;2022-08-06T06:27:33;2.20;;;1.60;;
58260;SDS011;44058;52.898;6.502;2022-08-06T06:30:16;2.58;;;1.40;;
58260;SDS011;44058;52.898;6.502;2022-08-06T06:32:50;3.35;;;1.42;;
58260;SDS011;44058;52.898;6.502;2022-08-06T06:35:46;1.95;;;1.52;;
58260;SDS011;44058;52.898;6.502;2022-08-06T06:38:31;1.70;;;1.60;;
58260;SDS011;44058;52.898;6.502;2022-08-06T06:44:11;2.08;;;1.80;;
58260;SDS011;44058;52.898;6.502;2022-08-06T06:47:00;2.40;;;1.60;;
58260;SDS011;44058;52.898;6.502;2022-08-06T06:49:41;3.53;;;1.58;;
58260;SDS011;44058;52.898;6.502;2022-08-06T06:52:52;2.63;;;1.88;;
58260;SDS011;44058;52.898;6.502;2022-08-06T07:00:39;3.00;;;1.58;;
58260;SDS011;44058;52.898;6.502;2022-08-06T07:03:07;1.60;;;1.20;;
58260;SDS011;44058;52.898;6.502;2022-08-06T07:05:33;3.03;;;1.70;;
58260;SDS011;44058;52.898;6.502;2022-08-06T07:08:02;1.58;;;1.30;;
58260;SDS011;44058;52.898;6.502;2022-08-06T07:10:29;1.30;;;1.20;;
58260;SDS011;44058;52.898;6.502;2022-08-06T07:12:56;1.20;;;1.10;;
58260;SDS011;44058;52.898;6.502;2022-08-06T07:15:24;1.33;;;0.90;;
58260;SDS011;44058;52.898;6.502;2022-08-06T07:17:51;1.20;;;1.00;;
58260;SDS011;44058;52.898;6.502;2022-08-06T07:20:21;3.33;;;0.85;;
58260;SDS011;44058;52.898;6.502;2022-08-06T07:22:51;1.30;;;0.80;;
58260;SDS011;44058;52.898;6.502;2022-08-06T07:25:20;1.98;;;0.75;;
58260;SDS011;44058;52.898;6.502;2022-08-06T07:27:48;2.33;;;0.85;;
58260;SDS011;44058;52.898;6.502;2022-08-06T07:30:17;4.07;;;1.27;;
58260;SDS011;44058;52.898;6.502;2022-08-06T07:32:45;2.35;;;0.90;;
58260;SDS011;44058;52.898;6.502;2022-08-06T07:35:12;1.73;;;0.80;;
58260;SDS011;44058;52.898;6.502;2022-08-06T07:37:44;2.03;;;0.68;;
58260;SDS011;44058;52.898;6.502;2022-08-06T07:40:30;2.95;;;0.85;;
58260;SDS011;44058;52.898;6.502;2022-08-06T07:43:16;2.00;;;0.77;;
58260;SDS011;44058;52.898;6.502;2022-08-06T07:45:45;1.77;;;0.70;;
58260;SDS011;44058;52.898;6.502;2022-08-06T07:48:14;3.03;;;1.27;;
58260;SDS011;44058;52.898;6.502;2022-08-06T07:50:48;4.18;;;1.00;;
58260;SDS011;44058;52.898;6.502;2022-08-06T07:53:15;2.30;;;0.80;;
58260;SDS011;44058;52.898;6.502;2022-08-06T07:55:42;2.55;;;0.70;;
58260;SDS011;44058;52.898;6.502;2022-08-06T07:58:08;3.10;;;0.60;;
58260;SDS011;44058;52.898;6.502;2022-08-06T08:00:36;1.70;;;0.70;;
58260;SDS011;44058;52.898;6.502;2022-08-06T08:03:03;3.30;;;0.80;;
58260;SDS011;44058;52.898;6.502;2022-08-06T08:05:48;2.53;;;0.80;;
58260;SDS011;44058;52.898;6.502;2022-08-06T08:08:33;2.97;;;0.68;;
58260;SDS011;44058;52.898;6.502;2022-08-06T08:10:59;4.10;;;0.68;;
58260;SDS011;44058;52.898;6.502;2022-08-06T08:13:25;2.22;;;0.80;;
58260;SDS011;44058;52.898;6.502;2022-08-06T08:15:51;2.15;;;0.90;;
58260;SDS011;44058;52.898;6.502;2022-08-06T08:18:20;2.15;;;0.80;;
58260;SDS011;44058;52.898;6.502;2022-08-06T08:20:45;1.83;;;0.50;;
58260;SDS011;44058;52.898;6.502;2022-08-06T08:23:13;3.85;;;0.80;;
58260;SDS011;44058;52.898;6.502;2022-08-06T08:25:40;2.08;;;0.70;;
58260;SDS011;44058;52.898;6.502;2022-08-06T08:28:07;1.48;;;0.60;;
58260;SDS011;44058;52.898;6.502;2022-08-06T08:30:38;2.20;;;0.80;;
58260;SDS011;44058;52.898;6.502;2022-08-06T08:33:05;2.50;;;0.90;;
58260;SDS011;44058;52.898;6.502;2022-08-06T08:35:31;2.22;;;0.60;;
58260;SDS011;44058;52.898;6.502;2022-08-06T08:37:56;3.58;;;0.82;;
58260;SDS011;44058;52.898;6.502;2022-08-06T08:40:22;3.50;;;0.65;;
58260;SDS011;44058;52.898;6.502;2022-08-06T08:42:50;2.90;;;0.70;;
58260;SDS011;44058;52.898;6.502;2022-08-06T08:45:20;1.40;;;0.75;;
58260;SDS011;44058;52.898;6.502;2022-08-06T08:47:51;2.60;;;1.10;;
58260;SDS011;44058;52.898;6.502;2022-08-06T08:50:21;2.90;;;0.75;;
58260;SDS011;44058;52.898;6.502;2022-08-06T08:52:49;3.58;;;1.10;;
58260;SDS011;44058;52.898;6.502;2022-08-06T08:55:17;3.92;;;1.10;;
58260;SDS011;44058;52.898;6.502;2022-08-06T08:57:48;2.40;;;1.40;;
58260;SDS011;44058;52.898;6.502;2022-08-06T09:00:16;3.67;;;1.75;;
58260;SDS011;44058;52.898;6.502;2022-08-06T09:02:42;3.60;;;1.25;;
58260;SDS011;44058;52.898;6.502;2022-08-06T09:05:09;3.97;;;1.95;;
58260;SDS011;44058;52.898;6.502;2022-08-06T09:07:35;2.78;;;1.50;;
58260;SDS011;44058;52.898;6.502;2022-08-06T09:10:03;3.92;;;1.50;;
58260;SDS011;44058;52.898;6.502;2022-08-06T09:14:57;2.47;;;1.55;;
58260;SDS011;44058;52.898;6.502;2022-08-06T09:17:23;2.88;;;1.70;;
58260;SDS011;44058;52.898;6.502;2022-08-06T09:19:51;2.22;;;1.80;;
58260;SDS011;44058;52.898;6.502;2022-08-06T09:22:17;2.25;;;1.35;;
58260;SDS011;44058;52.898;6.502;2022-08-06T09:24:43;3.53;;;1.70;;
58260;SDS011;44058;52.898;6.502;2022-08-06T09:27:13;2.45;;;1.48;;
58260;SDS011;44058;52.898;6.502;2022-08-06T09:29:53;2.85;;;1.70;;
58260;SDS011;44058;52.898;6.502;2022-08-06T09:32:41;3.83;;;1.90;;
58260;SDS011;44058;52.898;6.502;2022-08-06T09:35:17;3.17;;;1.98;;
58260;SDS011;44058;52.898;6.502;2022-08-06T09:37:44;2.53;;;1.90;;
58260;SDS011;44058;52.898;6.502;2022-08-06T09:40:14;2.20;;;1.77;;
58260;SDS011;44058;52.898;6.502;2022-08-06T09:42:43;3.15;;;1.90;;
58260;SDS011;44058;52.898;6.502;2022-08-06T09:45:12;3.60;;;2.03;;
58260;SDS011;44058;52.898;6.502;2022-08-06T09:47:39;2.97;;;1.75;;
58260;SDS011;44058;52.898;6.502;2022-08-06T09:50:05;2.78;;;1.73;;
58260;SDS011;44058;52.898;6.502;2022-08-06T09:52:32;2.45;;;1.90;;
58260;SDS011;44058;52.898;6.502;2022-08-06T09:54:58;2.13;;;1.75;;
58260;SDS011;44058;52.898;6.502;2022-08-06T09:57:25;3.17;;;1.98;;
58260;SDS011;44058;52.898;6.502;2022-08-06T09:59:52;2.08;;;1.90;;
58260;SDS011;44058;52.898;6.502;2022-08-06T10:02:18;2.10;;;1.63;;
58260;SDS011;44058;52.898;6.502;2022-08-06T10:04:45;3.30;;;1.98;;
58260;SDS011;44058;52.898;6.502;2022-08-06T10:07:13;2.45;;;1.90;;
58260;SDS011;44058;52.898;6.502;2022-08-06T10:09:51;2.47;;;1.90;;
58260;SDS011;44058;52.898;6.502;2022-08-06T10:12:19;2.28;;;1.70;;
58260;SDS011;44058;52.898;6.502;2022-08-06T10:14:46;3.80;;;1.90;;
58260;SDS011;44058;52.898;6.502;2022-08-06T10:17:12;2.58;;;1.90;;
58260;SDS011;44058;52.898;6.502;2022-08-06T10:19:43;2.95;;;1.60;;
58260;SDS011;44058;52.898;6.502;2022-08-06T10:24:43;4.25;;;2.00;;
58260;SDS011;44058;52.898;6.502;2022-08-06T10:27:10;2.78;;;1.73;;
58260;SDS011;44058;52.898;6.502;2022-08-06T10:29:51;2.17;;;1.88;;
58260;SDS011;44058;52.898;6.502;2022-08-06T10:32:52;2.20;;;1.70;;
58260;SDS011;44058;52.898;6.502;2022-08-06T10:35:21;1.48;;;1.38;;
58260;SDS011;44058;52.898;6.502;2022-08-06T10:37:52;3.53;;;1.87;;
58260;SDS011;44058;52.898;6.502;2022-08-06T10:40:23;3.10;;;1.70;;
58260;SDS011;44058;52.898;6.502;2022-08-06T10:42:51;2.00;;;1.50;;
58260;SDS011;44058;52.898;6.502;2022-08-06T10:45:17;2.88;;;1.73;;
58260;SDS011;44058;52.898;6.502;2022-08-06T10:47:44;2.10;;;1.40;;
58260;SDS011;44058;52.898;6.502;2022-08-06T10:50:12;3.47;;;1.50;;
58260;SDS011;44058;52.898;6.502;2022-08-06T10:52:39;3.50;;;1.70;;
58260;SDS011;44058;52.898;6.502;2022-08-06T10:55:05;3.38;;;1.50;;
58260;SDS011;44058;52.898;6.502;2022-08-06T10:57:32;7.10;;;2.60;;
58260;SDS011;44058;52.898;6.502;2022-08-06T10:59:58;4.35;;;1.95;;
58260;SDS011;44058;52.898;6.502;2022-08-06T11:02:32;4.10;;;1.63;;
58260;SDS011;44058;52.898;6.502;2022-08-06T11:05:18;2.28;;;1.83;;
58260;SDS011;44058;52.898;6.502;2022-08-06T11:18:15;2.38;;;1.70;;
58260;SDS011;44058;52.898;6.502;2022-08-06T11:20:45;1.80;;;1.23;;
58260;SDS011;44058;52.898;6.502;2022-08-06T11:25:38;1.65;;;1.30;;
58260;SDS011;44058;52.898;6.502;2022-08-06T11:28:05;2.40;;;1.52;;
58260;SDS011;44058;52.898;6.502;2022-08-06T11:33:15;1.73;;;1.42;;
58260;SDS011;44058;52.898;6.502;2022-08-06T11:35:48;2.80;;;1.67;;
58260;SDS011;44058;52.898;6.502;2022-08-06T11:41:10;3.38;;;1.60;;
58260;SDS011;44058;52.898;6.502;2022-08-06T11:43:42;1.73;;;1.38;;
58260;SDS011;44058;52.898;6.502;2022-08-06T11:54:25;1.83;;;1.40;;
58260;SDS011;44058;52.898;6.502;2022-08-06T12:01:52;3.00;;;1.52;;
58260;SDS011;44058;52.898;6.502;2022-08-06T12:07:22;3.67;;;1.90;;
58260;SDS011;44058;52.898;6.502;2022-08-06T12:12:34;2.47;;;1.77;;
58260;SDS011;44058;52.898;6.502;2022-08-06T12:23:11;3.10;;;1.50;;
58260;SDS011;44058;52.898;6.502;2022-08-06T12:25:40;1.60;;;1.40;;
58260;SDS011;44058;52.898;6.502;2022-08-06T12:28:10;2.65;;;1.70;;
58260;SDS011;44058;52.898;6.502;2022-08-06T12:35:33;2.33;;;1.77;;
58260;SDS011;44058;52.898;6.502;2022-08-06T12:38:01;3.00;;;1.80;;
58260;SDS011;44058;52.898;6.502;2022-08-06T12:40:27;2.45;;;1.75;;
58260;SDS011;44058;52.898;6.502;2022-08-06T12:43:14;2.78;;;1.40;;
58260;SDS011;44058;52.898;6.502;2022-08-06T12:45:39;2.78;;;1.85;;
58260;SDS011;44058;52.898;6.502;2022-08-06T12:48:07;3.97;;;1.77;;
58260;SDS011;44058;52.898;6.502;2022-08-06T12:50:39;4.15;;;2.03;;
58260;SDS011;44058;52.898;6.502;2022-08-06T12:53:07;3.70;;;1.88;;
58260;SDS011;44058;52.898;6.502;2022-08-06T12:55:44;2.63;;;1.88;;
58260;SDS011;44058;52.898;6.502;2022-08-06T12:58:15;2.10;;;1.90;;
58260;SDS011;44058;52.898;6.502;2022-08-06T13:03:11;3.03;;;2.00;;
58260;SDS011;44058;52.898;6.502;2022-08-06T13:05:38;2.20;;;2.00;;
58260;SDS011;44058;52.898;6.502;2022-08-06T13:08:05;2.08;;;1.85;;
58260;SDS011;44058;52.898;6.502;2022-08-06T13:10:31;2.58;;;2.00;;
58260;SDS011;44058;52.898;6.502;2022-08-06T13:13:03;2.10;;;1.88;;
58260;SDS011;44058;52.898;6.502;2022-08-06T13:15:30;1.95;;;1.80;;
58260;SDS011;44058;52.898;6.502;2022-08-06T13:18:03;1.77;;;1.50;;
58260;SDS011;44058;52.898;6.502;2022-08-06T13:20:41;1.42;;;1.30;;
58260;SDS011;44058;52.898;6.502;2022-08-06T13:28:23;1.50;;;1.40;;
58260;SDS011;44058;52.898;6.502;2022-08-06T13:30:49;2.95;;;1.75;;
58260;SDS011;44058;52.898;6.502;2022-08-06T13:33:20;2.05;;;1.50;;
58260;SDS011;44058;52.898;6.502;2022-08-06T13:35:49;3.53;;;1.50;;
58260;SDS011;44058;52.898;6.502;2022-08-06T13:38:27;2.60;;;1.58;;
58260;SDS011;44058;52.898;6.502;2022-08-06T13:40:54;4.45;;;1.60;;
58260;SDS011;44058;52.898;6.502;2022-08-06T13:43:20;4.88;;;2.00;;
58260;SDS011;44058;52.898;6.502;2022-08-06T13:45:46;4.05;;;2.42;;
58260;SDS011;44058;52.898;6.502;2022-08-06T13:48:18;5.07;;;2.30;;
58260;SDS011;44058;52.898;6.502;2022-08-06T13:50:44;2.28;;;1.90;;
58260;SDS011;44058;52.898;6.502;2022-08-06T13:53:11;6.45;;;2.40;;
58260;SDS011;44058;52.898;6.502;2022-08-06T13:55:38;2.50;;;2.17;;
58260;SDS011;44058;52.898;6.502;2022-08-06T13:58:07;2.08;;;1.90;;
58260;SDS011;44058;52.898;6.502;2022-08-06T14:00:35;1.88;;;1.70;;
58260;SDS011;44058;52.898;6.502;2022-08-06T14:03:02;10.70;;;1.92;;
58260;SDS011;44058;52.898;6.502;2022-08-06T14:05:28;1.58;;;1.48;;
58260;SDS011;44058;52.898;6.502;2022-08-06T14:07:54;1.92;;;1.33;;
58260;SDS011;44058;52.898;6.502;2022-08-06T14:10:19;1.60;;;1.17;;
58260;SDS011;44058;52.898;6.502;2022-08-06T14:12:45;1.60;;;1.40;;
58260;SDS011;44058;52.898;6.502;2022-08-06T14:15:31;2.10;;;1.10;;
58260;SDS011;44058;52.898;6.502;2022-08-06T14:17:57;1.88;;;1.40;;
58260;SDS011;44058;52.898;6.502;2022-08-06T14:20:23;1.65;;;1.00;;
58260;SDS011;44058;52.898;6.502;2022-08-06T14:22:49;3.55;;;1.40;;
58260;SDS011;44058;52.898;6.502;2022-08-06T14:25:16;2.97;;;1.52;;
58260;SDS011;44058;52.898;6.502;2022-08-06T14:27:41;2.38;;;1.48;;
58260;SDS011;44058;52.898;6.502;2022-08-06T14:30:07;3.28;;;2.10;;
58260;SDS011;44058;52.898;6.502;2022-08-06T14:32:33;2.08;;;1.88;;
58260;SDS011;44058;52.898;6.502;2022-08-06T14:34:59;3.15;;;1.95;;
58260;SDS011;44058;52.898;6.502;2022-08-06T14:37:24;2.63;;;1.80;;
58260;SDS011;44058;52.898;6.502;2022-08-06T14:39:51;2.30;;;2.10;;
58260;SDS011;44058;52.898;6.502;2022-08-06T14:42:16;1.90;;;1.80;;
58260;SDS011;44058;52.898;6.502;2022-08-06T14:45:01;2.50;;;1.80;;
58260;SDS011;44058;52.898;6.502;2022-08-06T14:47:31;2.08;;;1.70;;
58260;SDS011;44058;52.898;6.502;2022-08-06T14:49:57;2.38;;;2.10;;
58260;SDS011;44058;52.898;6.502;2022-08-06T14:52:23;3.78;;;1.83;;
58260;SDS011;44058;52.898;6.502;2022-08-06T14:54:49;2.45;;;1.73;;
58260;SDS011;44058;52.898;6.502;2022-08-06T14:57:15;2.20;;;1.70;;
58260;SDS011;44058;52.898;6.502;2022-08-06T14:59:41;1.70;;;1.60;;
58260;SDS011;44058;52.898;6.502;2022-08-06T15:02:07;1.70;;;1.60;;
58260;SDS011;44058;52.898;6.502;2022-08-06T15:04:33;2.80;;;1.80;;
58260;SDS011;44058;52.898;6.502;2022-08-06T15:06:59;1.98;;;1.80;;
58260;SDS011;44058;52.898;6.502;2022-08-06T15:09:25;2.08;;;1.85;;
58260;SDS011;44058;52.898;6.502;2022-08-06T15:11:52;4.05;;;1.90;;
58260;SDS011;44058;52.898;6.502;2022-08-06T15:14:17;2.90;;;2.20;;
58260;SDS011;44058;52.898;6.502;2022-08-06T15:16:43;3.28;;;2.60;;
58260;SDS011;44058;52.898;6.502;2022-08-06T15:19:09;2.92;;;2.10;;
58260;SDS011;44058;52.898;6.502;2022-08-06T15:21:35;2.20;;;2.00;;
58260;SDS011;44058;52.898;6.502;2022-08-06T15:24:00;3.75;;;2.42;;
58260;SDS011;44058;52.898;6.502;2022-08-06T15:26:26;2.33;;;1.90;;
58260;SDS011;44058;52.898;6.502;2022-08-06T15:28:55;2.03;;;1.85;;
58260;SDS011;44058;52.898;6.502;2022-08-06T15:33:46;2.13;;;2.00;;
58260;SDS011;44058;52.898;6.502;2022-08-06T15:36:12;2.08;;;1.85;;
58260;SDS011;44058;52.898;6.502;2022-08-06T15:38:38;2.30;;;2.10;;
58260;SDS011;44058;52.898;6.502;2022-08-06T15:41:05;2.45;;;1.85;;
58260;SDS011;44058;52.898;6.502;2022-08-06T15:43:32;3.67;;;1.90;;
58260;SDS011;44058;52.898;6.502;2022-08-06T15:46:01;2.03;;;1.83;;
58260;SDS011;44058;52.898;6.502;2022-08-06T15:48:27;2.20;;;2.00;;
58260;SDS011;44058;52.898;6.502;2022-08-06T15:50:53;2.22;;;1.73;;
58260;SDS011;44058;52.898;6.502;2022-08-06T15:53:20;5.07;;;2.40;;
58260;SDS011;44058;52.898;6.502;2022-08-06T15:55:48;2.67;;;2.08;;
58260;SDS011;44058;52.898;6.502;2022-08-06T15:58:13;2.28;;;1.80;;
58260;SDS011;44058;52.898;6.502;2022-08-06T16:00:40;2.42;;;2.17;;
58260;SDS011;44058;52.898;6.502;2022-08-06T16:03:08;2.10;;;1.77;;
58260;SDS011;44058;52.898;6.502;2022-08-06T16:05:36;2.20;;;2.00;;
58260;SDS011;44058;52.898;6.502;2022-08-06T16:08:03;3.50;;;1.80;;
58260;SDS011;44058;52.898;6.502;2022-08-06T16:10:29;1.95;;;1.80;;
58260;SDS011;44058;52.898;6.502;2022-08-06T16:12:56;2.78;;;2.13;;
58260;SDS011;44058;52.898;6.502;2022-08-06T16:15:21;3.30;;;2.33;;
58260;SDS011;44058;52.898;6.502;2022-08-06T16:17:47;2.88;;;2.00;;
58260;SDS011;44058;52.898;6.502;2022-08-06T16:20:16;2.83;;;2.08;;
58260;SDS011;44058;52.898;6.502;2022-08-06T16:22:42;2.42;;;1.92;;
58260;SDS011;44058;52.898;6.502;2022-08-06T16:25:09;2.97;;;2.30;;
58260;SDS011;44058;52.898;6.502;2022-08-06T16:27:35;2.58;;;2.08;;
58260;SDS011;44058;52.898;6.502;2022-08-06T16:30:00;2.58;;;2.30;;
58260;SDS011;44058;52.898;6.502;2022-08-06T16:32:26;3.13;;;2.10;;
58260;SDS011;44058;52.898;6.502;2022-08-06T16:34:52;2.95;;;2.20;;
58260;SDS011;44058;52.898;6.502;2022-08-06T16:37:23;3.00;;;1.95;;
58260;SDS011;44058;52.898;6.502;2022-08-06T16:39:49;2.55;;;2.15;;